Time;durP1;ratioP1;P1;durP2;ratioP2;P2;SDS_P1;SDS_P2;PMS_P1;PMS_P2;Temp;Humidity;BMP_temperature;BMP_pressure;BME280_temperature;BME280_humidity;BME280_pressure;Samples;Min_cycle;Max_cycle;Signal;HPM_P1;HPM_P2
2023/11/11 00:01:39;;;;;;;1.80;1.02;;;;;;;8.62;63.82;98000.06;10499497;28;20048;-62
2023/11/11 00:06:41;;;;;;;0.98;0.63;;;;;;;8.59;63.96;98009.88;10485834;28;20037;-62
2023/11/11 00:11:44;;;;;;;15.65;1.40;;;;;;;8.48;64.04;98010.78;10502859;28;20118;-63
2023/11/11 00:16:46;;;;;;;1.60;0.95;;;;;;;8.42;64.21;98010.44;10514015;28;20113;-63
2023/11/11 00:21:49;;;;;;;5.05;1.67;;;;;;;8.33;64.49;98025.03;10509724;28;20423;-63
2023/11/11 00:26:55;;;;;;;1.17;0.75;;;;;;;8.37;64.82;98021.22;10510104;28;20097;-63
2023/11/11 00:31:58;;;;;;;1.95;1.10;;;;;;;8.42;64.98;98039.09;10512135;28;20570;-63
2023/11/11 00:37:00;;;;;;;1.02;0.70;;;;;;;8.43;64.92;98064.19;10490482;28;20048;-63
2023/11/11 00:42:02;;;;;;;0.38;0.38;;;;;;;8.04;65.39;98082.00;10510578;28;21898;-63
2023/11/11 00:47:04;;;;;;;0.98;0.68;;;;;;;7.57;65.43;98120.47;10495126;28;20040;-63
2023/11/11 00:52:07;;;;;;;0.30;0.30;;;;;;;7.23;64.82;98137.75;10493512;28;20046;-63
2023/11/11 00:57:09;;;;;;;0.47;0.32;;;;;;;6.99;64.95;98136.97;10517022;28;20040;-62
2023/11/11 01:02:11;;;;;;;3.75;0.45;;;;;;;6.88;64.64;98134.31;10516905;28;20056;-63
2023/11/11 01:07:13;;;;;;;0.73;0.47;;;;;;;6.75;64.55;98141.38;10516990;28;20039;-63
2023/11/11 01:12:15;;;;;;;0.50;0.30;;;;;;;6.66;64.95;98161.03;10482409;28;20040;-63
2023/11/11 01:17:18;;;;;;;0.30;0.30;;;;;;;6.67;64.91;98164.47;10513652;28;20040;-63
2023/11/11 01:22:21;;;;;;;0.28;0.28;;;;;;;6.82;64.86;98176.34;10516121;28;20376;-63
2023/11/11 01:27:23;;;;;;;0.95;0.40;;;;;;;6.85;64.96;98183.94;10514228;28;20123;-63
2023/11/11 01:32:26;;;;;;;0.25;0.25;;;;;;;6.91;65.02;98202.53;10512458;28;20036;-63
2023/11/11 01:37:28;;;;;;;0.70;0.70;;;;;;;6.86;64.95;98215.00;10515660;28;20047;-63
2023/11/11 01:42:29;;;;;;;0.43;0.38;;;;;;;6.83;65.02;98235.19;10514227;28;20066;-63
2023/11/11 01:47:32;;;;;;;0.40;0.40;;;;;;;6.73;65.81;98241.97;10512876;28;20072;-63
2023/11/11 01:52:35;;;;;;;0.90;0.47;;;;;;;6.82;65.52;98249.94;10513237;28;20059;-64
2023/11/11 01:57:37;;;;;;;1.05;0.60;;;;;;;6.77;65.61;98257.25;10507269;28;20127;-63
2023/11/11 02:02:40;;;;;;;0.40;0.40;;;;;;;6.83;65.53;98266.38;10493817;28;20048;-63
2023/11/11 02:07:43;;;;;;;0.30;0.30;;;;;;;6.77;66.07;98272.84;10496239;28;20040;-63
2023/11/11 02:12:45;;;;;;;0.20;0.20;;;;;;;6.85;65.78;98285.28;10495131;28;20056;-63
2023/11/11 02:17:47;;;;;;;0.40;0.40;;;;;;;6.66;65.52;98292.69;10514639;28;20470;-63
2023/11/11 02:22:49;;;;;;;0.30;0.30;;;;;;;6.77;65.70;98279.78;10512607;28;20159;-63
2023/11/11 02:27:51;;;;;;;0.50;0.50;;;;;;;6.80;65.45;98279.56;10511954;28;20131;-63
2023/11/11 02:32:53;;;;;;;0.50;0.50;;;;;;;6.86;65.61;98286.91;10479299;28;20051;-63
2023/11/11 02:37:55;;;;;;;0.40;0.40;;;;;;;6.93;65.61;98293.34;10493815;28;20859;-63
2023/11/11 02:42:57;;;;;;;0.40;0.40;;;;;;;7.10;65.56;98301.59;10513623;28;20044;-63
2023/11/11 02:48:00;;;;;;;0.52;0.50;;;;;;;7.20;65.21;98302.59;10508727;28;20050;-63
2023/11/11 02:53:03;;;;;;;0.80;0.45;;;;;;;7.22;65.46;98312.91;10487064;28;20415;-63
2023/11/11 02:58:04;;;;;;;0.70;0.55;;;;;;;7.37;65.36;98323.97;10513587;28;20142;-63
2023/11/11 03:03:07;;;;;;;1.20;0.57;;;;;;;7.37;65.39;98323.97;10511993;28;20064;-63
2023/11/11 03:08:10;;;;;;;0.52;0.52;;;;;;;7.34;65.53;98330.25;10493567;28;20040;-63
2023/11/11 03:13:13;;;;;;;0.98;0.50;;;;;;;7.32;65.56;98342.53;10511340;28;20592;-63
2023/11/11 03:18:15;;;;;;;0.50;0.50;;;;;;;7.31;65.59;98340.00;10491038;28;20116;-63
2023/11/11 03:23:17;;;;;;;1.05;0.95;;;;;;;7.34;65.65;98350.19;10511718;28;20449;-63
2023/11/11 03:28:19;;;;;;;1.20;0.80;;;;;;;7.43;65.51;98350.38;10477539;28;20032;-62
2023/11/11 03:33:21;;;;;;;1.30;0.98;;;;;;;7.38;65.81;98357.69;10513799;28;20064;-63
2023/11/11 03:38:23;;;;;;;1.85;1.10;;;;;;;7.40;66.02;98365.38;10515209;28;20140;-63
2023/11/11 03:43:25;;;;;;;1.08;0.90;;;;;;;7.48;65.94;98368.25;10512147;28;20051;-63
2023/11/11 03:48:28;;;;;;;1.65;1.00;;;;;;;7.60;65.59;98367.38;10500501;28;20040;-63
2023/11/11 03:53:30;;;;;;;1.27;0.93;;;;;;;7.56;65.48;98371.97;10487858;28;20044;-62
2023/11/11 03:58:33;;;;;;;1.70;1.30;;;;;;;7.44;65.60;98378.06;10519575;28;20062;-63
2023/11/11 04:03:38;;;;;;;1.13;1.02;;;;;;;7.29;65.94;98388.69;10497113;28;20044;-63
2023/11/11 04:08:41;;;;;;;1.40;1.10;;;;;;;7.28;65.79;98393.09;10513499;28;20048;-64
2023/11/11 04:13:45;;;;;;;2.17;1.00;;;;;;;7.20;66.02;98411.00;10496793;28;20709;-64
2023/11/11 04:18:47;;;;;;;2.97;1.10;;;;;;;7.24;65.96;98419.41;10498705;28;20051;-64
2023/11/11 04:23:49;;;;;;;2.80;0.85;;;;;;;7.17;66.02;98426.78;10518439;28;20044;-64
2023/11/11 04:28:52;;;;;;;2.88;1.40;;;;;;;7.03;65.96;98445.97;10501135;28;20225;-64
2023/11/11 04:33:53;;;;;;;1.08;0.90;;;;;;;7.00;66.22;98461.75;10500920;28;20036;-65
2023/11/11 04:38:56;;;;;;;2.25;1.13;;;;;;;7.11;65.85;98471.41;10517499;28;20158;-64
2023/11/11 04:43:58;;;;;;;2.70;1.10;;;;;;;7.24;65.49;98481.81;10500749;28;20055;-64
2023/11/11 04:49:00;;;;;;;2.53;1.60;;;;;;;7.20;65.43;98491.59;10516264;28;20064;-64
2023/11/11 04:54:03;;;;;;;1.83;1.10;;;;;;;6.96;66.04;98507.06;10518628;28;20135;-64
2023/11/11 04:59:05;;;;;;;2.35;1.27;;;;;;;6.90;66.31;98511.84;10515044;28;20051;-62
2023/11/11 05:04:08;;;;;;;2.60;1.10;;;;;;;6.89;66.03;98524.03;10499951;28;20044;-63
2023/11/11 05:09:10;;;;;;;1.40;1.17;;;;;;;6.96;66.05;98535.66;10493635;28;20081;-63
2023/11/11 05:14:18;;;;;;;1.60;1.17;;;;;;;6.87;65.73;98543.25;10515377;28;20068;-63
2023/11/11 05:19:24;;;;;;;3.17;1.08;;;;;;;6.80;66.00;98552.38;10500352;28;20048;-63
2023/11/11 05:24:27;;;;;;;1.63;0.55;;;;;;;6.91;65.82;98574.13;10499947;28;20138;-63
2023/11/11 05:29:29;;;;;;;1.98;0.98;;;;;;;6.88;65.41;98578.69;10515657;28;20059;-63
2023/11/11 05:34:31;;;;;;;2.50;0.63;;;;;;;6.81;65.64;98585.25;10516014;28;20032;-63
2023/11/11 05:39:33;;;;;;;1.70;0.93;;;;;;;6.84;65.86;98591.06;10515090;28;20047;-65
2023/11/11 05:44:37;;;;;;;0.63;0.63;;;;;;;6.80;65.86;98593.94;10515558;28;20444;-63
2023/11/11 05:49:40;;;;;;;0.80;0.80;;;;;;;6.66;66.20;98605.25;10514504;28;20100;-63
2023/11/11 05:54:45;;;;;;;2.17;1.20;;;;;;;6.69;66.30;98614.63;10513148;28;20090;-64
2023/11/11 05:59:48;;;;;;;2.13;0.90;;;;;;;6.73;66.46;98614.31;10514965;28;20135;-64
2023/11/11 06:04:50;;;;;;;1.00;0.90;;;;;;;6.80;66.46;98641.56;10514356;28;20650;-64
2023/11/11 06:09:53;;;;;;;1.85;1.13;;;;;;;6.83;66.34;98654.38;10495908;28;20585;-65
2023/11/11 06:14:55;;;;;;;2.00;1.10;;;;;;;6.90;66.48;98655.63;10512137;28;20133;-65
2023/11/11 06:19:58;;;;;;;1.90;1.02;;;;;;;6.86;66.90;98666.31;10513956;28;20067;-66
2023/11/11 06:25:00;;;;;;;3.50;0.70;;;;;;;6.78;66.81;98678.97;10494967;28;20127;-65
2023/11/11 06:30:03;;;;;;;1.35;0.90;;;;;;;6.78;67.30;98678.97;10514777;28;20131;-64
2023/11/11 06:35:08;;;;;;;0.68;0.68;;;;;;;6.83;66.94;98689.91;10510203;28;20068;-64
2023/11/11 06:40:11;;;;;;;1.27;1.13;;;;;;;6.79;66.80;98707.47;10510838;28;20109;-64
2023/11/11 06:45:14;;;;;;;1.98;0.88;;;;;;;6.86;66.73;98706.13;10511405;28;20535;-64
2023/11/11 06:50:17;;;;;;;0.60;0.60;;;;;;;6.81;66.51;98715.16;10506882;28;20044;-63
2023/11/11 06:55:19;;;;;;;0.70;0.50;;;;;;;6.73;66.38;98727.81;10508458;28;20055;-64
2023/11/11 07:00:22;;;;;;;2.30;0.70;;;;;;;6.84;66.12;98726.19;10512636;28;20105;-64
2023/11/11 07:05:25;;;;;;;0.68;0.68;;;;;;;7.00;65.54;98741.63;10511821;28;20547;-64
2023/11/11 07:10:30;;;;;;;1.25;0.68;;;;;;;7.03;65.42;98746.66;10511818;28;20046;-64
2023/11/11 07:15:33;;;;;;;2.17;0.82;;;;;;;7.10;65.02;98758.34;10512737;28;20238;-65
2023/11/11 07:20:35;;;;;;;0.70;0.70;;;;;;;6.82;65.32;98769.63;10511948;28;20044;-64
2023/11/11 07:25:38;;;;;;;0.60;0.60;;;;;;;6.80;65.62;98763.69;10511038;28;20135;-65
2023/11/11 07:30:40;;;;;;;0.75;0.73;;;;;;;6.71;65.60;98769.47;10486973;28;20403;-64
2023/11/11 07:35:43;;;;;;;2.75;1.48;;;;;;;6.75;65.54;98764.91;10500516;28;20040;-64
2023/11/11 07:40:46;;;;;;;2.75;1.50;;;;;;;7.62;64.41;98761.78;10504378;28;20136;-64
2023/11/11 07:45:48;;;;;;;1.67;1.20;;;;;;;7.59;63.83;98772.38;10506163;28;20127;-64
2023/11/11 07:50:50;;;;;;;2.53;1.33;;;;;;;7.17;64.02;98777.78;10498170;28;20044;-65
2023/11/11 07:55:52;;;;;;;1.65;1.30;;;;;;;6.78;64.87;98793.28;10506546;28;20059;-64
2023/11/11 08:00:56;;;;;;;2.45;1.38;;;;;;;6.75;65.25;98799.53;10508518;28;20040;-64
2023/11/11 08:05:59;;;;;;;2.70;1.20;;;;;;;6.94;65.00;98799.19;10507839;28;20553;-65
2023/11/11 08:11:01;;;;;;;2.35;1.30;;;;;;;6.94;65.08;98804.41;10509362;28;20052;-64
2023/11/11 08:16:04;;;;;;;1.27;0.80;;;;;;;7.00;64.91;98798.81;10504491;28;20174;-65
2023/11/11 08:21:06;;;;;;;1.00;0.90;;;;;;;7.26;64.68;98803.22;10484125;28;20055;-64
2023/11/11 08:26:10;;;;;;;1.00;0.85;;;;;;;7.38;64.40;98802.44;10473496;28;20040;-64
2023/11/11 08:31:13;;;;;;;0.95;0.88;;;;;;;7.51;64.03;98805.88;10510914;28;20976;-64
2023/11/11 08:36:15;;;;;;;1.23;1.00;;;;;;;7.43;63.94;98809.91;10515300;28;20048;-64
2023/11/11 08:41:17;;;;;;;1.80;1.02;;;;;;;7.52;63.96;98810.16;10518488;28;20142;-63
2023/11/11 08:46:19;;;;;;;1.70;1.05;;;;;;;7.79;63.39;98815.34;10499864;28;20044;-64
2023/11/11 08:51:21;;;;;;;3.42;1.02;;;;;;;7.83;62.45;98819.41;10519741;28;20070;-64
2023/11/11 08:56:23;;;;;;;2.10;1.10;;;;;;;7.74;62.83;98817.41;10517327;28;20568;-64
2023/11/11 09:01:26;;;;;;;1.88;0.90;;;;;;;7.82;62.43;98815.13;10517318;28;20048;-64
2023/11/11 09:06:28;;;;;;;2.33;1.27;;;;;;;7.98;62.25;98816.59;10517410;28;20048;-64
2023/11/11 09:11:37;;;;;;;2.58;0.93;;;;;;;8.12;61.32;98807.88;10499069;28;20044;-64
2023/11/11 09:16:39;;;;;;;1.58;1.08;;;;;;;7.96;61.59;98805.47;10516341;28;20060;-64
2023/11/11 09:21:41;;;;;;;3.45;1.48;;;;;;;7.91;61.44;98819.72;10516837;28;20139;-64
2023/11/11 09:26:43;;;;;;;2.28;1.33;;;;;;;7.95;61.22;98821.19;10516241;28;20051;-65
2023/11/11 09:31:48;;;;;;;2.10;1.08;;;;;;;7.87;60.54;98823.47;10518885;28;20389;-64
2023/11/11 09:36:50;;;;;;;1.27;1.08;;;;;;;7.78;60.77;98837.06;10518153;28;20059;-65
2023/11/11 09:41:52;;;;;;;3.33;1.70;;;;;;;7.64;59.87;98847.56;10515241;28;20040;-64
2023/11/11 09:46:55;;;;;;;3.78;1.42;;;;;;;7.84;60.22;98855.72;10515931;28;20052;-69
2023/11/11 09:51:59;;;;;;;1.20;1.10;;;;;;;8.10;60.17;98853.19;10511229;28;20526;-69
2023/11/11 09:57:04;;;;;;;1.67;1.20;;;;;;;8.24;59.72;98859.16;10511232;28;20044;-69
2023/11/11 10:02:11;;;;;;;3.28;1.70;;;;;;;8.54;59.31;98857.09;10507994;28;20048;-69
2023/11/11 10:07:15;;;;;;;2.55;1.10;;;;;;;9.03;57.14;98856.31;10472744;28;20044;-69
2023/11/11 10:12:18;;;;;;;1.98;1.00;;;;;;;9.10;57.32;98860.13;10493360;28;20089;-69
2023/11/11 10:17:20;;;;;;;3.40;1.00;;;;;;;9.06;55.39;98859.50;10511407;28;20077;-69
2023/11/11 10:22:23;;;;;;;1.52;1.10;;;;;;;9.16;57.55;98864.91;10510383;28;20076;-69
2023/11/11 10:27:27;;;;;;;1.67;1.17;;;;;;;9.08;57.22;98862.84;10509208;28;20047;-70
2023/11/11 10:32:29;;;;;;;4.88;1.20;;;;;;;9.25;57.09;98865.09;10509180;28;20833;-69
2023/11/11 10:37:32;;;;;;;3.30;1.63;;;;;;;9.54;56.14;98878.69;10512049;28;20051;-69
2023/11/11 10:42:35;;;;;;;2.17;1.13;;;;;;;9.37;56.17;98879.88;10515194;28;21039;-69
2023/11/11 10:47:38;;;;;;;1.55;1.13;;;;;;;9.40;56.03;98868.41;10511312;28;20472;-69
2023/11/11 10:52:41;;;;;;;2.40;1.20;;;;;;;9.43;55.74;98868.16;10513388;28;20052;-69
2023/11/11 10:57:45;;;;;;;2.55;1.10;;;;;;;9.33;55.02;98883.66;10493680;28;20043;-69
2023/11/11 11:02:50;;;;;;;0.88;0.82;;;;;;;9.73;54.83;98880.84;10512510;28;20048;-68
2023/11/11 11:08:15;;;;;;;1.58;0.93;;;;;;;9.69;53.26;98880.19;10495420;28;20047;-68
2023/11/11 11:13:18;;;;;;;1.02;0.90;;;;;;;9.70;53.92;98881.03;10505128;28;20411;-67
2023/11/11 11:18:25;;;;;;;3.67;1.40;;;;;;;9.74;54.43;98882.47;10488806;28;20058;-66
2023/11/11 11:23:35;;;;;;;1.48;1.17;;;;;;;9.98;52.80;98872.84;10508544;28;20056;-66
2023/11/11 11:28:37;;;;;;;3.83;1.80;;;;;;;10.37;53.90;98875.94;10491174;28;20051;-66
2023/11/11 11:33:41;;;;;;;2.67;1.27;;;;;;;10.17;51.14;98874.00;10509816;28;20385;-66
2023/11/11 11:38:46;;;;;;;1.60;1.00;;;;;;;10.04;52.64;98869.78;10508245;28;20048;-66
2023/11/11 11:43:53;;;;;;;0.90;0.90;;;;;;;9.67;52.37;98883.88;10506353;28;20426;-67
2023/11/11 11:48:55;;;;;;;3.17;1.10;;;;;;;9.27;54.42;98880.66;10492118;28;20048;-66
2023/11/11 11:53:57;;;;;;;1.42;1.05;;;;;;;9.13;54.97;98873.81;10494166;28;20036;-67
2023/11/11 11:59:02;;;;;;;1.13;0.93;;;;;;;9.15;55.06;98895.41;10501824;28;20045;-66
2023/11/11 12:04:06;;;;;;;4.68;1.10;;;;;;;9.17;54.94;98880.47;10506143;28;20079;-67
2023/11/11 12:09:09;;;;;;;2.35;0.93;;;;;;;9.27;54.29;98884.09;10492578;28;20036;-67
2023/11/11 12:14:16;;;;;;;1.45;1.08;;;;;;;9.43;53.80;98882.06;10512268;28;20547;-67
2023/11/11 12:19:26;;;;;;;1.98;1.20;;;;;;;9.71;53.62;98878.31;10495821;28;20440;-66
2023/11/11 12:24:29;;;;;;;2.05;1.08;;;;;;;9.80;53.44;98887.25;10510127;28;20056;-68
2023/11/11 12:29:38;;;;;;;2.58;1.55;;;;;;;9.47;52.70;98893.94;10512644;28;20511;-68
2023/11/11 12:34:42;;;;;;;2.17;1.17;;;;;;;9.49;53.72;98892.06;10513051;28;20058;-68
2023/11/11 12:39:51;;;;;;;2.38;1.30;;;;;;;9.51;53.84;98892.78;10508859;28;20112;-68
2023/11/11 12:44:53;;;;;;;2.05;1.25;;;;;;;9.30;54.28;98902.13;10498218;28;20044;-68
2023/11/11 12:49:57;;;;;;;1.55;1.00;;;;;;;9.33;54.66;98903.69;10517869;28;20411;-68
2023/11/11 12:55:01;;;;;;;2.33;1.00;;;;;;;9.50;54.74;98901.53;10516739;28;20126;-68
2023/11/11 13:00:07;;;;;;;1.42;0.90;;;;;;;9.59;54.51;98900.06;10517221;28;20044;-68
2023/11/11 13:05:09;;;;;;;4.07;1.30;;;;;;;9.54;54.19;98902.97;10514752;28;20494;-68
2023/11/11 13:10:14;;;;;;;1.15;0.90;;;;;;;9.44;54.52;98909.81;10517105;28;20253;-68
2023/11/11 13:15:16;;;;;;;1.85;0.98;;;;;;;9.22;54.71;98912.28;10495051;28;20939;-68
2023/11/11 13:20:20;;;;;;;2.08;1.08;;;;;;;9.04;54.96;98917.94;10515553;28;20063;-68
2023/11/11 13:25:22;;;;;;;1.55;0.90;;;;;;;8.99;55.74;98915.66;10492891;28;20040;-69
2023/11/11 13:30:25;;;;;;;1.23;0.90;;;;;;;9.22;55.68;98907.06;10495922;28;20048;-70
2023/11/11 13:35:31;;;;;;;1.63;0.98;;;;;;;9.54;55.63;98910.81;10512464;28;20893;-69
2023/11/11 13:40:35;;;;;;;2.50;1.17;;;;;;;9.61;55.57;98912.06;10503347;28;20139;-69
2023/11/11 13:45:38;;;;;;;2.33;1.00;;;;;;;9.60;55.53;98901.72;10512962;28;20043;-69
2023/11/11 13:50:40;;;;;;;3.20;1.00;;;;;;;9.76;54.97;98901.47;10509014;28;20044;-69
2023/11/11 13:55:42;;;;;;;1.15;0.90;;;;;;;9.74;54.43;98900.75;10509384;28;20048;-67
2023/11/11 14:00:44;;;;;;;2.25;0.80;;;;;;;9.54;54.36;98905.59;10487474;28;20047;-69
2023/11/11 14:05:47;;;;;;;1.50;1.00;;;;;;;9.29;54.58;98905.69;10496591;28;20071;-68
2023/11/11 14:10:50;;;;;;;1.00;0.90;;;;;;;9.28;54.69;98908.41;10499526;28;20957;-68
2023/11/11 14:15:52;;;;;;;2.42;0.88;;;;;;;9.20;54.73;98924.59;10498794;28;20080;-68
2023/11/11 14:21:01;;;;;;;1.13;0.93;;;;;;;9.08;55.24;98930.66;10497926;28;20047;-68
2023/11/11 14:26:04;;;;;;;1.67;0.63;;;;;;;8.81;56.44;98953.44;10510276;28;20048;-68
2023/11/11 14:31:07;;;;;;;1.08;0.70;;;;;;;8.47;57.11;98954.00;10491983;28;20039;-68
2023/11/11 14:36:10;;;;;;;0.70;0.70;;;;;;;8.47;57.60;98954.00;10506898;28;20101;-68
2023/11/11 14:41:13;;;;;;;2.63;1.13;;;;;;;8.55;57.82;98956.94;10490852;28;20067;-68
2023/11/11 14:46:20;;;;;;;1.05;0.73;;;;;;;8.57;58.33;98966.31;10509694;28;20620;-68
2023/11/11 14:51:22;;;;;;;2.33;0.93;;;;;;;8.57;58.45;98958.50;10511265;28;20492;-68
2023/11/11 14:56:24;;;;;;;3.05;1.10;;;;;;;8.45;58.63;98966.31;10508438;28;20040;-68
2023/11/11 15:01:27;;;;;;;1.90;1.15;;;;;;;8.25;58.96;98969.38;10494258;28;21200;-68
2023/11/11 15:06:32;;;;;;;1.25;0.98;;;;;;;7.96;59.72;98981.66;10511506;28;20056;-68
2023/11/11 15:11:34;;;;;;;1.27;0.95;;;;;;;7.75;59.69;98985.66;10507257;28;20048;-68
2023/11/11 15:16:44;;;;;;;1.40;0.90;;;;;;;7.52;60.32;98994.03;10487364;28;20090;-68
2023/11/11 15:21:53;;;;;;;0.70;0.70;;;;;;;7.42;60.16;98985.97;10492948;28;20048;-69
2023/11/11 15:26:57;;;;;;;1.15;0.85;;;;;;;7.21;61.09;98997.69;10511368;28;20047;-68
2023/11/11 15:32:01;;;;;;;3.83;1.40;;;;;;;7.14;61.23;99001.59;10490506;28;21201;-68
2023/11/11 15:37:05;;;;;;;0.82;0.80;;;;;;;7.09;61.92;99008.84;10509121;28;20135;-70
2023/11/11 15:42:08;;;;;;;1.92;1.13;;;;;;;7.14;60.95;99001.59;10508963;28;20067;-68
2023/11/11 15:47:12;;;;;;;2.53;1.67;;;;;;;7.09;61.21;99014.03;10516494;28;20566;-69
2023/11/11 15:52:17;;;;;;;1.25;1.00;;;;;;;7.04;61.17;99021.28;10515694;28;20048;-69
2023/11/11 15:57:19;;;;;;;1.58;1.00;;;;;;;6.81;61.99;99030.44;10514525;28;20302;-69
2023/11/11 16:02:21;;;;;;;0.98;0.75;;;;;;;6.88;61.81;99038.69;10512133;28;21143;-69
2023/11/11 16:07:23;;;;;;;1.27;0.75;;;;;;;6.86;61.55;99036.19;10516539;28;20127;-69
2023/11/11 16:12:27;;;;;;;0.90;0.60;;;;;;;6.84;61.79;99045.84;10497156;28;20494;-62
2023/11/11 16:17:30;;;;;;;0.68;0.55;;;;;;;6.87;61.64;99040.47;10511331;28;20044;-61
2023/11/11 16:22:34;;;;;;;1.80;0.90;;;;;;;6.80;61.77;99051.28;10480092;28;20137;-63
2023/11/11 16:27:37;;;;;;;2.20;0.90;;;;;;;6.85;61.42;99038.88;10506395;28;20131;-62
2023/11/11 16:32:43;;;;;;;1.08;0.90;;;;;;;6.80;61.68;99046.09;10514230;28;20071;-62
2023/11/11 16:37:47;;;;;;;0.85;0.63;;;;;;;6.72;62.01;99048.31;10511680;28;20074;-62
2023/11/11 16:42:50;;;;;;;0.65;0.65;;;;;;;6.78;61.58;99047.94;10512149;28;20040;-62
2023/11/11 16:47:52;;;;;;;0.80;0.80;;;;;;;6.91;61.53;99051.50;10506430;28;20040;-62
2023/11/11 16:52:55;;;;;;;0.88;0.85;;;;;;;6.86;61.27;99046.59;10511663;28;20177;-63
2023/11/11 16:57:59;;;;;;;2.58;0.80;;;;;;;6.93;61.37;99058.31;10509271;28;20083;-63
2023/11/11 17:03:01;;;;;;;1.00;0.88;;;;;;;6.88;61.28;99064.69;10508748;28;20044;-62
2023/11/11 17:08:04;;;;;;;0.85;0.70;;;;;;;6.81;61.68;99065.97;10510561;28;20047;-63
2023/11/11 17:13:06;;;;;;;0.75;0.60;;;;;;;6.83;61.75;99064.13;10485201;28;20416;-62
2023/11/11 17:18:10;;;;;;;1.35;0.90;;;;;;;7.02;61.43;99067.34;10509240;28;20554;-63
2023/11/11 17:23:14;;;;;;;0.88;0.82;;;;;;;7.09;61.25;99073.81;10504132;28;20051;-62
2023/11/11 17:28:29;;;;;;;0.82;0.75;;;;;;;7.14;61.28;99072.63;10511495;28;20051;-62
2023/11/11 17:33:36;;;;;;;0.38;0.38;;;;;;;7.12;61.30;99071.88;10493817;28;20052;-62
2023/11/11 17:38:47;;;;;;;0.93;0.90;;;;;;;7.17;61.53;99077.66;10509395;28;20048;-63
2023/11/11 17:43:49;;;;;;;0.70;0.70;;;;;;;7.31;60.95;99099.38;10511687;28;20051;-62
2023/11/11 17:48:51;;;;;;;1.50;0.70;;;;;;;7.47;60.64;99093.19;10512278;28;20043;-62
2023/11/11 17:53:53;;;;;;;0.60;0.60;;;;;;;7.67;60.75;99087.59;10507594;28;20652;-62
2023/11/11 17:58:55;;;;;;;1.38;0.85;;;;;;;7.85;60.53;99099.47;10511681;28;20047;-62
2023/11/11 18:03:59;;;;;;;3.38;1.20;;;;;;;7.74;60.62;99088.91;10508211;28;20098;-62
2023/11/11 18:09:02;;;;;;;3.60;1.27;;;;;;;7.41;61.68;99082.28;10504799;28;20054;-62
2023/11/11 18:14:04;;;;;;;0.93;0.90;;;;;;;7.26;62.22;99086.69;10498661;28;20050;-62
2023/11/11 18:19:08;;;;;;;2.55;1.25;;;;;;;7.27;62.34;99084.88;10503691;28;20510;-61
2023/11/11 18:24:10;;;;;;;2.08;1.20;;;;;;;7.30;62.26;99093.38;10506489;28;20050;-62
2023/11/11 18:29:12;;;;;;;3.40;1.45;;;;;;;7.21;62.44;99099.09;10507994;28;20515;-62
2023/11/11 18:34:15;;;;;;;5.70;2.22;;;;;;;7.03;62.69;99092.38;10511373;28;20040;-62
2023/11/11 18:39:17;;;;;;;3.65;1.70;;;;;;;6.94;62.79;99109.34;10486618;28;20134;-62
2023/11/11 18:44:19;;;;;;;5.10;2.13;;;;;;;6.99;63.06;99114.28;10495473;28;20172;-62
2023/11/11 18:49:21;;;;;;;4.65;2.42;;;;;;;6.98;63.28;99112.59;10492714;28;20047;-63
2023/11/11 18:54:23;;;;;;;9.80;3.95;;;;;;;7.09;63.23;99113.66;10501354;28;20051;-63
2023/11/11 18:59:25;;;;;;;5.32;3.15;;;;;;;7.18;63.19;99125.31;10498389;28;20040;-62
2023/11/11 19:04:27;;;;;;;2.92;2.05;;;;;;;7.06;63.21;99132.03;10495356;28;20040;-63
2023/11/11 19:09:29;;;;;;;2.55;1.20;;;;;;;6.97;63.42;99131.75;10502681;28;20138;-63
2023/11/11 19:14:32;;;;;;;1.27;1.00;;;;;;;7.05;63.68;99134.72;10494034;28;20063;-63
2023/11/11 19:19:34;;;;;;;1.42;1.00;;;;;;;6.84;63.78;99126.41;10495484;28;20075;-62
2023/11/11 19:24:36;;;;;;;2.40;1.40;;;;;;;6.84;63.93;99125.56;10498665;28;20673;-62
2023/11/11 19:29:41;;;;;;;1.17;1.00;;;;;;;6.87;64.11;99130.59;10507198;28;20048;-63
2023/11/11 19:34:43;;;;;;;3.47;1.60;;;;;;;6.77;64.07;99125.09;10507373;28;20127;-63
2023/11/11 19:39:45;;;;;;;2.90;1.85;;;;;;;6.60;64.34;99135.59;10511063;28;20048;-63
2023/11/11 19:44:47;;;;;;;2.78;1.52;;;;;;;6.31;65.07;99146.75;10508463;28;20048;-63
2023/11/11 19:49:49;;;;;;;3.28;1.33;;;;;;;6.29;65.39;99148.59;10500024;28;20185;-63
2023/11/11 19:54:51;;;;;;;2.42;1.52;;;;;;;6.16;65.52;99147.56;10502858;28;20131;-63
2023/11/11 19:59:53;;;;;;;5.57;1.63;;;;;;;6.17;65.61;99152.66;10504562;28;20044;-63
2023/11/11 20:04:55;;;;;;;3.53;1.83;;;;;;;6.18;65.65;99146.56;10471439;28;20117;-63
2023/11/11 20:10:00;;;;;;;2.97;1.90;;;;;;;6.21;65.48;99146.38;10499378;28;20115;-63
2023/11/11 20:15:05;;;;;;;2.97;1.35;;;;;;;6.26;65.44;99148.78;10467190;28;20577;-63
2023/11/11 20:20:07;;;;;;;3.08;1.73;;;;;;;6.38;65.34;99147.25;10507916;28;20050;-63
2023/11/11 20:25:11;;;;;;;2.63;1.48;;;;;;;6.53;64.96;99151.63;10505425;28;20058;-63
2023/11/11 20:30:14;;;;;;;5.13;1.35;;;;;;;6.56;64.87;99138.44;10506509;28;20044;-63
2023/11/11 20:35:16;;;;;;;3.08;1.70;;;;;;;6.48;64.62;99132.84;10509646;28;21054;-63
2023/11/11 20:40:19;;;;;;;2.80;1.58;;;;;;;6.24;65.03;99133.25;10512962;28;20113;-63
2023/11/11 20:45:21;;;;;;;3.00;1.85;;;;;;;6.06;65.64;99125.63;10507365;28;20467;-63
2023/11/11 20:50:23;;;;;;;2.35;1.45;;;;;;;6.00;65.26;99123.38;10508920;28;20043;-63
2023/11/11 20:55:25;;;;;;;2.78;1.60;;;;;;;5.89;65.43;99118.75;10506446;28;20054;-63
2023/11/11 21:00:28;;;;;;;4.03;1.92;;;;;;;5.81;65.89;99110.53;10516449;28;20056;-63
2023/11/11 21:05:30;;;;;;;1.70;1.20;;;;;;;5.75;65.90;99110.84;10518349;28;20081;-63
2023/11/11 21:10:34;;;;;;;3.08;1.70;;;;;;;5.74;65.81;99111.75;10513985;28;20056;-63
2023/11/11 21:15:37;;;;;;;2.72;1.60;;;;;;;5.67;65.87;99109.59;10516835;28;20064;-63
2023/11/11 21:20:38;;;;;;;4.13;1.70;;;;;;;5.59;66.11;99104.81;10514029;28;20052;-63
2023/11/11 21:25:41;;;;;;;3.33;1.60;;;;;;;5.49;66.38;99107.03;10513726;28;20142;-63
2023/11/11 21:30:43;;;;;;;6.47;1.55;;;;;;;5.49;66.31;99098.44;10511759;28;20521;-62
2023/11/11 21:35:47;;;;;;;5.03;1.60;;;;;;;5.44;66.62;99090.88;10515091;28;20040;-62
2023/11/11 21:40:51;;;;;;;4.72;2.10;;;;;;;5.48;66.57;99091.56;10512125;28;20048;-62
2023/11/11 21:45:53;;;;;;;3.60;1.40;;;;;;;5.53;66.53;99089.56;10511305;28;20044;-63
2023/11/11 21:50:55;;;;;;;4.45;1.60;;;;;;;5.59;66.29;99091.84;10515117;28;20040;-63
2023/11/11 21:55:57;;;;;;;3.72;1.80;;;;;;;5.61;66.35;99084.81;10510190;28;20048;-63
2023/11/11 22:00:59;;;;;;;3.65;1.42;;;;;;;5.62;66.34;99083.88;10511997;28;20071;-62
2023/11/11 22:06:01;;;;;;;3.63;1.83;;;;;;;5.69;66.10;99090.44;10493306;28;20055;-63
2023/11/11 22:11:05;;;;;;;3.10;2.30;;;;;;;5.67;66.08;99087.09;10510053;28;20079;-63
2023/11/11 22:16:07;;;;;;;2.65;1.65;;;;;;;5.55;66.50;99087.72;10513455;28;20101;-62
2023/11/11 22:21:09;;;;;;;3.20;2.20;;;;;;;5.49;66.44;99095.84;10515055;28;20158;-63
2023/11/11 22:26:16;;;;;;;3.72;1.63;;;;;;;5.49;66.98;99094.06;10512204;28;20194;-63
2023/11/11 22:31:19;;;;;;;4.45;1.83;;;;;;;5.61;66.92;99092.59;10512073;28;20036;-63
2023/11/11 22:36:23;;;;;;;3.22;2.10;;;;;;;5.78;66.90;99087.31;10512376;28;20138;-63
2023/11/11 22:41:26;;;;;;;5.45;1.77;;;;;;;5.98;66.39;99076.72;10512531;28;20492;-63
2023/11/11 22:46:27;;;;;;;3.28;1.88;;;;;;;6.01;66.22;99081.75;10510186;28;20059;-64
2023/11/11 22:51:29;;;;;;;3.88;1.67;;;;;;;6.12;66.07;99073.38;10511560;28;20138;-63
2023/11/11 22:56:32;;;;;;;6.45;1.58;;;;;;;6.27;65.84;99069.94;10511940;28;20676;-63
2023/11/11 23:01:34;;;;;;;2.70;1.70;;;;;;;6.34;65.46;99063.50;10511354;28;20678;-63
2023/11/11 23:06:36;;;;;;;4.25;2.00;;;;;;;6.30;65.54;99059.41;10494054;28;20040;-63
2023/11/11 23:11:38;;;;;;;5.53;1.95;;;;;;;6.35;65.41;99060.81;10492581;28;20499;-63
2023/11/11 23:16:40;;;;;;;2.65;1.73;;;;;;;6.40;65.25;99057.97;10509849;28;20989;-63
2023/11/11 23:21:43;;;;;;;2.33;1.60;;;;;;;6.32;65.08;99058.41;10509968;28;20059;-63
2023/11/11 23:26:45;;;;;;;3.08;1.80;;;;;;;6.04;65.52;99065.97;10511929;28;20416;-63
2023/11/11 23:31:47;;;;;;;2.65;1.50;;;;;;;5.79;65.81;99062.22;10493170;28;20056;-63
2023/11/11 23:36:49;;;;;;;8.13;1.98;;;;;;;5.58;66.15;99066.81;10490611;28;20127;-64
2023/11/11 23:41:51;;;;;;;3.97;1.70;;;;;;;5.38;66.52;99069.63;10509873;28;20051;-64
2023/11/11 23:46:53;;;;;;;2.53;1.20;;;;;;;5.26;66.75;99063.31;10507684;28;20067;-64